createdAt,value
2017-07-30T00:01:53.457Z,6.23
2017-07-30T00:04:19.509Z,6.43
2017-07-30T00:06:45.599Z,6.83
2017-07-30T00:09:11.658Z,6.27
2017-07-30T00:11:37.759Z,6.00
2017-07-30T00:14:03.797Z,6.50
2017-07-30T00:16:30.606Z,6.93
2017-07-30T00:18:56.722Z,6.40
2017-07-30T00:21:22.847Z,6.30
2017-07-30T00:23:48.890Z,6.80
2017-07-30T00:26:14.949Z,5.80
2017-07-30T00:28:41.001Z,6.03
2017-07-30T00:31:07.054Z,6.50
2017-07-30T00:33:33.118Z,7.00
2017-07-30T00:35:59.199Z,6.67
2017-07-30T00:38:26.050Z,5.80
2017-07-30T00:40:52.108Z,6.40
2017-07-30T00:43:18.910Z,5.90
2017-07-30T00:45:44.942Z,6.50
2017-07-30T00:48:11.014Z,5.83
2017-07-30T00:50:37.093Z,6.60
2017-07-30T00:53:03.162Z,5.73
2017-07-30T00:55:29.207Z,5.13
2017-07-30T00:57:55.284Z,5.63
2017-07-30T01:00:21.337Z,6.03
2017-07-30T01:02:47.426Z,5.33
2017-07-30T01:05:13.474Z,6.00
2017-07-30T01:07:40.285Z,6.03
2017-07-30T01:10:06.332Z,5.03
2017-07-30T01:12:33.253Z,5.80
2017-07-30T01:14:59.303Z,5.27
2017-07-30T01:17:26.090Z,5.40
2017-07-30T01:19:52.157Z,4.97
2017-07-30T01:22:18.214Z,5.40
2017-07-30T01:24:44.254Z,5.90
2017-07-30T01:27:10.322Z,5.13
2017-07-30T01:29:36.369Z,5.47
2017-07-30T01:32:02.446Z,4.93
2017-07-30T01:34:28.507Z,5.07
2017-07-30T01:36:54.586Z,5.37
2017-07-30T01:39:20.642Z,5.00
2017-07-30T01:41:47.564Z,4.87
2017-07-30T01:44:13.622Z,5.57
2017-07-30T01:46:40.422Z,4.40
2017-07-30T01:49:06.500Z,4.80
2017-07-30T01:51:32.546Z,4.70
2017-07-30T01:53:58.655Z,5.10
2017-07-30T01:56:24.814Z,5.97
2017-07-30T01:58:50.886Z,4.70
2017-07-30T02:01:16.938Z,5.20
2017-07-30T02:03:43.030Z,5.07
2017-07-30T02:06:09.066Z,5.40
2017-07-30T02:08:35.173Z,4.90
2017-07-30T02:11:01.218Z,5.83
2017-07-30T02:13:27.310Z,5.20
2017-07-30T02:15:53.345Z,5.20
2017-07-30T02:18:19.419Z,4.63
2017-07-30T02:20:45.459Z,5.00
2017-07-30T02:23:11.567Z,5.27
2017-07-30T02:25:37.605Z,4.53
2017-07-30T02:28:03.662Z,4.80
2017-07-30T02:30:29.710Z,5.70
2017-07-30T02:32:55.767Z,4.70
2017-07-30T02:35:21.822Z,4.50
2017-07-30T02:37:47.927Z,4.80
2017-07-30T02:40:13.990Z,4.83
2017-07-30T02:42:40.063Z,4.60
2017-07-30T02:45:06.128Z,4.30
2017-07-30T02:47:32.199Z,5.63
2017-07-30T02:49:58.250Z,4.47
2017-07-30T02:52:24.306Z,4.60
2017-07-30T02:54:50.362Z,4.50
2017-07-30T02:57:17.171Z,4.90
2017-07-30T02:59:43.217Z,4.37
2017-07-30T03:02:10.037Z,4.67
2017-07-30T03:04:36.160Z,5.00
2017-07-30T03:07:02.286Z,4.50
2017-07-30T03:09:28.330Z,4.70
2017-07-30T03:11:55.146Z,5.40
2017-07-30T03:14:21.209Z,6.00
2017-07-30T03:16:47.274Z,5.63
2017-07-30T03:19:13.334Z,5.40
2017-07-30T03:21:39.377Z,5.30
2017-07-30T03:24:05.438Z,4.90
2017-07-30T03:26:31.586Z,5.77
2017-07-30T03:28:57.654Z,5.63
2017-07-30T03:31:24.438Z,4.87
2017-07-30T03:33:50.502Z,5.40
2017-07-30T03:36:16.553Z,5.13
2017-07-30T03:38:42.622Z,5.17
2017-07-30T03:41:08.658Z,5.27
2017-07-30T03:43:34.719Z,5.80
2017-07-30T03:46:01.515Z,5.10
2017-07-30T03:48:27.628Z,5.33
2017-07-30T03:50:53.662Z,5.60
2017-07-30T03:53:19.746Z,5.70
2017-07-30T03:55:45.827Z,5.27
2017-07-30T03:58:11.894Z,5.90
2017-07-30T04:00:37.942Z,4.57
2017-07-30T04:03:04.034Z,5.20
2017-07-30T04:05:30.910Z,5.40
2017-07-30T04:07:56.946Z,5.00
2017-07-30T04:10:23.006Z,4.30
2017-07-30T04:12:49.051Z,5.50
2017-07-30T04:15:16.650Z,5.13
2017-07-30T04:17:42.722Z,5.23
2017-07-30T04:20:08.786Z,4.90
2017-07-30T04:22:34.833Z,4.90
2017-07-30T04:25:00.894Z,5.00
2017-07-30T04:27:27.042Z,5.30
2017-07-30T04:29:53.179Z,4.60
2017-07-30T04:32:19.226Z,4.10
2017-07-30T04:34:45.295Z,4.87
2017-07-30T04:37:12.106Z,5.10
2017-07-30T04:39:38.165Z,4.67
2017-07-30T04:42:04.955Z,4.03
2017-07-30T04:44:31.015Z,3.90
2017-07-30T04:46:57.062Z,3.80
2017-07-30T04:49:23.126Z,3.80
2017-07-30T04:51:49.187Z,4.40
2017-07-30T04:54:15.250Z,4.23
2017-07-30T04:56:41.339Z,4.50
2017-07-30T04:59:07.414Z,4.17
2017-07-30T05:01:33.474Z,3.97
2017-07-30T05:03:59.550Z,5.07
2017-07-30T05:06:25.586Z,4.80
2017-07-30T05:08:51.682Z,4.43
2017-07-30T05:11:17.818Z,3.90
2017-07-30T05:13:43.858Z,3.93
2017-07-30T05:16:09.926Z,4.63
2017-07-30T05:18:35.970Z,4.70
2017-07-30T05:21:02.050Z,4.20
2017-07-30T05:23:28.091Z,4.50
2017-07-30T05:25:54.147Z,4.80
2017-07-30T05:28:20.935Z,5.20
2017-07-30T05:30:46.986Z,4.50
2017-07-30T05:33:13.037Z,4.40
2017-07-30T05:35:39.124Z,5.23
2017-07-30T05:38:05.167Z,5.30
2017-07-30T05:40:31.230Z,5.97
2017-07-30T05:42:57.314Z,5.07
2017-07-30T05:45:23.362Z,5.07
2017-07-30T05:47:50.209Z,5.63
2017-07-30T05:50:16.998Z,5.23
2017-07-30T05:52:43.143Z,4.77
2017-07-30T05:55:09.210Z,5.00
2017-07-30T05:57:35.267Z,4.80
2017-07-30T06:00:01.321Z,4.43
2017-07-30T06:02:27.432Z,4.47
2017-07-30T06:04:53.593Z,4.17
2017-07-30T06:07:20.426Z,5.03
2017-07-30T06:09:46.527Z,4.50
2017-07-30T06:12:12.595Z,4.83
2017-07-30T06:14:39.374Z,4.73
2017-07-30T06:17:05.501Z,4.40
2017-07-30T06:19:31.569Z,5.40
2017-07-30T06:21:57.627Z,4.47
2017-07-30T06:24:23.683Z,4.10
2017-07-30T06:26:49.857Z,4.60
2017-07-30T06:29:16.641Z,4.63
2017-07-30T06:31:42.686Z,4.50
2017-07-30T06:34:08.794Z,4.17
2017-07-30T06:36:34.840Z,4.50
2017-07-30T06:39:00.916Z,4.40
2017-07-30T06:41:26.971Z,4.13
2017-07-30T06:43:53.026Z,5.17
2017-07-30T06:46:19.113Z,5.00
2017-07-30T06:48:45.186Z,4.13
2017-07-30T06:51:11.971Z,4.20
2017-07-30T06:53:38.026Z,4.37
2017-07-30T06:56:04.098Z,4.23
2017-07-30T06:58:30.166Z,3.67
2017-07-30T07:00:56.330Z,4.10
2017-07-30T07:03:23.167Z,3.77
2017-07-30T07:05:49.962Z,4.50
2017-07-30T07:08:16.110Z,4.30
2017-07-30T07:10:42.169Z,4.17
2017-07-30T07:13:08.979Z,4.10
2017-07-30T07:15:35.018Z,4.50
2017-07-30T07:18:01.161Z,4.20
2017-07-30T07:20:28.018Z,3.83
2017-07-30T07:22:54.081Z,3.33
2017-07-30T07:25:20.215Z,4.20
2017-07-30T07:27:46.339Z,3.97
2017-07-30T07:30:12.478Z,3.70
2017-07-30T07:32:38.525Z,3.90
2017-07-30T07:35:05.334Z,4.20
2017-07-30T07:37:31.521Z,4.20
2017-07-30T07:39:57.579Z,4.40
2017-07-30T07:42:23.630Z,4.47
2017-07-30T07:44:49.689Z,4.10
2017-07-30T07:47:15.847Z,3.73
2017-07-30T07:49:41.978Z,3.90
2017-07-30T07:52:08.054Z,3.60
2017-07-30T07:54:34.182Z,3.33
2017-07-30T07:57:00.966Z,3.13
2017-07-30T07:59:27.134Z,3.40
2017-07-30T08:01:53.930Z,4.27
2017-07-30T08:04:20.074Z,3.30
2017-07-30T08:06:46.155Z,4.00
2017-07-30T08:09:12.243Z,3.73
2017-07-30T08:11:39.041Z,4.17
2017-07-30T08:14:05.086Z,4.53
2017-07-30T08:16:31.162Z,4.00
2017-07-30T08:18:57.206Z,3.47
2017-07-30T08:21:23.261Z,3.90
2017-07-30T08:23:49.362Z,3.40
2017-07-30T08:26:15.496Z,4.00
2017-07-30T08:28:41.596Z,3.53
2017-07-30T08:31:07.650Z,3.40
2017-07-30T08:33:33.702Z,3.67
2017-07-30T08:35:59.771Z,3.20
2017-07-30T08:38:25.830Z,3.53
2017-07-30T08:40:52.123Z,4.10
2017-07-30T08:43:18.177Z,3.90
2017-07-30T08:45:44.291Z,3.53
2017-07-30T08:48:10.338Z,3.00
2017-07-30T08:50:36.386Z,3.60
2017-07-30T08:53:03.291Z,3.70
2017-07-30T08:55:29.507Z,2.90
2017-07-30T08:57:55.606Z,3.70
2017-07-30T09:00:21.721Z,3.70
2017-07-30T09:02:48.734Z,3.23
2017-07-30T09:05:14.797Z,3.30
2017-07-30T09:07:41.059Z,3.50
2017-07-30T09:10:07.110Z,3.40
2017-07-30T09:12:33.295Z,3.23
2017-07-30T09:14:59.346Z,3.03
2017-07-30T09:17:25.454Z,3.50
2017-07-30T09:19:51.523Z,3.43
2017-07-30T09:22:17.566Z,4.00
2017-07-30T09:24:43.635Z,3.90
2017-07-30T09:27:09.832Z,3.63
2017-07-30T09:29:35.897Z,3.50
2017-07-30T09:32:01.957Z,3.03
2017-07-30T09:34:28.053Z,2.77
2017-07-30T09:36:54.127Z,3.90
2017-07-30T09:39:20.391Z,3.53
2017-07-30T09:41:46.438Z,3.73
2017-07-30T09:44:12.627Z,3.33
2017-07-30T09:46:38.742Z,3.40
2017-07-30T09:49:04.820Z,3.50
2017-07-30T09:51:31.342Z,3.33
2017-07-30T09:53:57.548Z,3.50
2017-07-30T09:56:23.754Z,3.60
2017-07-30T09:58:50.005Z,3.77
2017-07-30T10:01:16.091Z,2.83
2017-07-30T10:03:43.014Z,3.00
2017-07-30T10:06:09.077Z,2.93
2017-07-30T10:08:35.153Z,2.97
2017-07-30T10:11:01.210Z,3.00
2017-07-30T10:13:28.023Z,2.87
2017-07-30T10:15:54.197Z,3.27
2017-07-30T10:18:20.280Z,2.87
2017-07-30T10:20:46.329Z,3.50
2017-07-30T10:23:12.430Z,3.47
2017-07-30T10:25:38.527Z,3.10
2017-07-30T10:28:04.604Z,3.00
2017-07-30T10:30:30.755Z,3.00
2017-07-30T10:32:56.987Z,3.10
2017-07-30T10:35:23.042Z,3.07
2017-07-30T10:37:49.166Z,2.40
2017-07-30T10:40:15.239Z,2.70
2017-07-30T10:42:41.489Z,2.43
2017-07-30T10:45:07.574Z,2.60
2017-07-30T10:47:33.632Z,2.63
2017-07-30T10:49:59.938Z,2.80
2017-07-30T10:52:26.746Z,2.03
2017-07-30T10:54:52.932Z,2.13
2017-07-30T10:57:19.071Z,2.07
2017-07-30T10:59:45.194Z,1.90
2017-07-30T11:02:11.287Z,1.80
2017-07-30T11:04:37.455Z,2.10
2017-07-30T11:07:03.510Z,2.00
2017-07-30T11:09:29.562Z,2.00
2017-07-30T11:11:55.647Z,2.10
2017-07-30T11:14:21.698Z,2.40
2017-07-30T11:16:48.518Z,1.87
2017-07-30T11:19:14.685Z,2.00
2017-07-30T11:21:41.502Z,2.40
2017-07-30T11:24:07.658Z,2.10
2017-07-30T11:26:33.727Z,1.93
2017-07-30T11:28:59.906Z,2.10
2017-07-30T11:31:26.051Z,2.00
2017-07-30T11:33:52.099Z,2.10
2017-07-30T11:36:18.204Z,1.80
2017-07-30T11:38:44.471Z,1.90
2017-07-30T11:41:10.537Z,1.80
2017-07-30T11:43:36.658Z,2.20
2017-07-30T11:46:03.465Z,2.17
2017-07-30T11:48:29.515Z,1.80
2017-07-30T11:50:55.598Z,1.90
2017-07-30T11:53:21.639Z,2.00
2017-07-30T11:55:47.722Z,2.03
2017-07-30T11:58:13.779Z,2.40
2017-07-30T12:00:39.868Z,2.23
2017-07-30T12:03:06.178Z,2.07
2017-07-30T12:05:32.397Z,2.00
2017-07-30T12:07:59.194Z,1.93
2017-07-30T12:10:25.263Z,1.70
2017-07-30T12:12:51.428Z,1.90
2017-07-30T12:15:17.493Z,1.70
2017-07-30T12:17:43.632Z,2.10
2017-07-30T12:20:09.787Z,1.70
2017-07-30T12:22:35.868Z,1.80
2017-07-30T12:25:01.987Z,2.10
2017-07-30T12:27:28.078Z,1.90
2017-07-30T12:29:54.162Z,2.37
2017-07-30T12:32:20.999Z,2.50
2017-07-30T12:34:47.082Z,1.90
2017-07-30T12:37:13.173Z,2.00
2017-07-30T12:39:39.238Z,2.27
2017-07-30T12:42:05.309Z,1.97
2017-07-30T12:44:32.098Z,2.30
2017-07-30T12:46:58.170Z,2.13
2017-07-30T12:49:24.981Z,2.00
2017-07-30T12:51:51.096Z,2.07
2017-07-30T12:54:17.150Z,1.97
2017-07-30T12:56:43.228Z,2.23
2017-07-30T12:59:09.306Z,1.90
2017-07-30T13:01:36.126Z,2.10
2017-07-30T13:04:02.207Z,2.10
2017-07-30T13:06:28.294Z,2.17
2017-07-30T13:08:54.359Z,1.90
2017-07-30T13:11:20.431Z,1.67
2017-07-30T13:13:46.500Z,1.97
2017-07-30T13:16:12.567Z,2.20
2017-07-30T13:18:38.626Z,1.90
2017-07-30T13:21:04.702Z,2.00
2017-07-30T13:23:30.758Z,2.00
2017-07-30T13:25:56.831Z,1.90
2017-07-30T13:28:22.918Z,1.90
2017-07-30T13:30:49.738Z,2.00
2017-07-30T13:33:15.793Z,1.90
2017-07-30T13:35:42.663Z,2.30
2017-07-30T13:38:08.718Z,2.10
2017-07-30T13:40:34.770Z,2.00
2017-07-30T13:43:00.842Z,2.10
2017-07-30T13:45:26.926Z,2.10
2017-07-30T13:47:53.717Z,2.10
2017-07-30T13:50:19.786Z,1.83
2017-07-30T13:52:45.852Z,1.80
2017-07-30T13:55:11.930Z,1.70
2017-07-30T13:57:38.027Z,1.93
2017-07-30T14:00:04.095Z,1.90
2017-07-30T14:02:30.904Z,2.17
2017-07-30T14:04:56.996Z,2.10
2017-07-30T14:07:23.089Z,1.70
2017-07-30T14:09:49.910Z,2.10
2017-07-30T14:12:16.001Z,2.00
2017-07-30T14:14:42.089Z,2.33
2017-07-30T14:17:08.179Z,2.17
2017-07-30T14:19:34.255Z,2.60
2017-07-30T14:22:00.352Z,2.23
2017-07-30T14:24:27.178Z,2.63
2017-07-30T14:26:53.293Z,1.90
2017-07-30T14:29:19.353Z,2.13
2017-07-30T14:31:45.422Z,2.43
2017-07-30T14:34:11.510Z,2.00
2017-07-30T14:36:37.628Z,2.40
2017-07-30T14:39:03.711Z,2.30
2017-07-30T14:41:29.753Z,2.20
2017-07-30T14:43:55.835Z,2.03
2017-07-30T14:46:21.886Z,2.23
2017-07-30T14:48:47.960Z,2.30
2017-07-30T14:51:14.013Z,2.00
2017-07-30T14:53:40.090Z,2.20
2017-07-30T14:56:07.403Z,2.47
2017-07-30T14:58:33.491Z,2.17
2017-07-30T15:00:59.549Z,2.57
2017-07-30T15:03:25.647Z,2.37
2017-07-30T15:05:51.721Z,2.17
2017-07-30T15:08:17.807Z,2.57
2017-07-30T15:10:43.903Z,2.27
2017-07-30T15:13:09.991Z,2.70
2017-07-30T15:15:36.058Z,2.40
2017-07-30T15:18:02.168Z,2.37
2017-07-30T15:20:28.982Z,2.70
2017-07-30T15:22:55.054Z,2.20
2017-07-30T15:25:21.135Z,2.37
2017-07-30T15:27:47.206Z,2.33
2017-07-30T15:30:13.287Z,2.60
2017-07-30T15:32:39.380Z,2.20
2017-07-30T15:35:05.430Z,2.70
2017-07-30T15:37:31.540Z,2.37
2017-07-30T15:39:57.606Z,1.90
2017-07-30T15:42:24.429Z,2.30
2017-07-30T15:44:50.490Z,2.40
2017-07-30T15:47:16.577Z,2.33
2017-07-30T15:49:42.655Z,2.80
2017-07-30T15:52:08.731Z,2.53
2017-07-30T15:54:34.825Z,2.37
2017-07-30T15:57:00.890Z,2.60
2017-07-30T15:59:26.993Z,2.17
2017-07-30T16:01:53.067Z,2.40
2017-07-30T16:04:19.154Z,2.40
2017-07-30T16:06:45.231Z,2.20
2017-07-30T16:09:11.327Z,2.20
2017-07-30T16:11:38.163Z,2.60
2017-07-30T16:14:04.242Z,2.87
2017-07-30T16:16:30.314Z,2.27
2017-07-30T16:18:57.115Z,2.17
2017-07-30T16:21:23.178Z,2.50
2017-07-30T16:23:49.998Z,2.00
2017-07-30T16:26:16.058Z,2.67
2017-07-30T16:28:42.110Z,2.50
2017-07-30T16:31:08.182Z,2.77
2017-07-30T16:33:34.227Z,2.13
2017-07-30T16:36:00.311Z,2.57
2017-07-30T16:38:26.378Z,2.33
2017-07-30T16:40:52.446Z,2.60
2017-07-30T16:43:18.498Z,2.23
2017-07-30T16:45:44.574Z,2.43
2017-07-30T16:48:10.622Z,2.33
2017-07-30T16:50:36.698Z,2.37
2017-07-30T16:53:02.739Z,2.00
2017-07-30T16:55:28.827Z,2.33
2017-07-30T16:57:55.648Z,2.57
2017-07-30T17:00:21.736Z,2.10
2017-07-30T17:02:47.802Z,1.83
2017-07-30T17:05:13.867Z,1.80
2017-07-30T17:07:39.938Z,1.80
2017-07-30T17:10:06.004Z,1.83
2017-07-30T17:12:32.811Z,2.20
2017-07-30T17:14:58.877Z,1.60
2017-07-30T17:17:24.962Z,1.63
2017-07-30T17:19:51.023Z,1.47
2017-07-30T17:22:17.102Z,1.60
2017-07-30T17:24:43.170Z,1.63
2017-07-30T17:27:09.246Z,1.43
2017-07-30T17:29:35.310Z,1.20
2017-07-30T17:32:02.151Z,1.90
2017-07-30T17:34:28.967Z,1.50
2017-07-30T17:36:55.040Z,1.50
2017-07-30T17:39:21.091Z,1.60
2017-07-30T17:41:47.186Z,1.57
2017-07-30T17:44:13.254Z,1.73
2017-07-30T17:46:39.340Z,1.60
2017-07-30T17:49:05.398Z,1.47
2017-07-30T17:51:31.501Z,1.40
2017-07-30T17:53:57.559Z,1.70
2017-07-30T17:56:23.624Z,1.50
2017-07-30T17:58:50.486Z,1.70
2017-07-30T18:01:16.546Z,1.77
2017-07-30T18:03:42.623Z,1.77
2017-07-30T18:06:08.703Z,1.30
2017-07-30T18:08:34.823Z,1.40
2017-07-30T18:11:00.903Z,1.60
2017-07-30T18:13:26.985Z,1.33
2017-07-30T18:15:53.062Z,1.90
2017-07-30T18:18:19.130Z,1.73
2017-07-30T18:20:45.190Z,1.60
2017-07-30T18:23:11.268Z,1.60
2017-07-30T18:25:37.330Z,1.80
2017-07-30T18:28:04.214Z,1.77
2017-07-30T18:30:30.279Z,1.63
2017-07-30T18:32:56.384Z,1.67
2017-07-30T18:35:22.438Z,1.60
2017-07-30T18:37:48.542Z,2.00
2017-07-30T18:40:14.595Z,1.67
2017-07-30T18:42:41.435Z,2.00
2017-07-30T18:45:08.253Z,1.80
2017-07-30T18:47:34.331Z,1.70
2017-07-30T18:50:00.404Z,2.50
2017-07-30T18:52:26.487Z,1.73
2017-07-30T18:54:52.550Z,2.00
2017-07-30T18:57:18.631Z,2.27
2017-07-30T18:59:44.684Z,2.20
2017-07-30T19:02:10.762Z,1.80
2017-07-30T19:04:36.842Z,2.17
2017-07-30T19:07:03.078Z,2.37
2017-07-30T19:09:29.161Z,2.47
2017-07-30T19:11:55.246Z,2.23
2017-07-30T19:14:21.319Z,2.20
2017-07-30T19:16:47.370Z,2.50
2017-07-30T19:19:13.452Z,1.83
2017-07-30T19:21:39.508Z,1.63
2017-07-30T19:24:05.570Z,1.77
2017-07-30T19:26:31.670Z,1.80
2017-07-30T19:28:57.739Z,1.90
2017-07-30T19:31:23.827Z,1.80
2017-07-30T19:33:49.931Z,1.57
2017-07-30T19:36:16.019Z,1.93
2017-07-30T19:38:42.066Z,1.80
2017-07-30T19:41:08.133Z,1.80
2017-07-30T19:43:34.194Z,1.87
2017-07-30T19:46:00.307Z,2.03
2017-07-30T19:48:26.350Z,1.73
2017-07-30T19:50:52.410Z,1.73
2017-07-30T19:53:18.502Z,1.60
2017-07-30T19:55:44.727Z,1.70
2017-07-30T19:58:10.793Z,1.73
2017-07-30T20:00:36.867Z,2.30
2017-07-30T20:03:02.931Z,1.90
2017-07-30T20:05:29.011Z,2.10
2017-07-30T20:07:55.102Z,1.70
2017-07-30T20:10:21.174Z,1.77
2017-07-30T20:13:02.182Z,2.07
2017-07-30T20:15:28.242Z,1.80
2017-07-30T20:17:54.319Z,1.90
2017-07-30T20:20:20.415Z,2.00
2017-07-30T20:22:46.498Z,2.00
2017-07-30T20:25:12.566Z,1.70
2017-07-30T20:27:38.638Z,2.40
2017-07-30T20:30:04.703Z,2.10
2017-07-30T20:32:30.801Z,1.90
2017-07-30T20:34:56.851Z,1.60
2017-07-30T20:37:22.922Z,1.80
2017-07-30T20:39:49.535Z,1.87
2017-07-30T20:42:15.612Z,1.90
2017-07-30T20:44:41.683Z,2.50
2017-07-30T20:47:07.734Z,2.47
2017-07-30T20:49:33.834Z,2.07
2017-07-30T20:51:59.915Z,2.00
2017-07-30T20:54:26.058Z,2.20
2017-07-30T20:56:52.111Z,2.20
2017-07-30T20:59:18.214Z,1.90
2017-07-30T21:01:45.039Z,2.03
2017-07-30T21:04:11.208Z,2.30
2017-07-30T21:06:37.308Z,1.97
2017-07-30T21:09:04.134Z,1.90
2017-07-30T21:11:30.258Z,1.93
2017-07-30T21:13:56.327Z,1.70
2017-07-30T21:16:22.487Z,1.87
2017-07-30T21:18:48.602Z,1.77
2017-07-30T21:21:14.966Z,2.47
2017-07-30T21:23:41.870Z,1.90
2017-07-30T21:26:07.938Z,2.00
2017-07-30T21:28:35.146Z,2.80
2017-07-30T21:31:01.794Z,2.23
2017-07-30T21:33:27.874Z,2.20
2017-07-30T21:35:53.939Z,1.90
2017-07-30T21:38:20.095Z,1.93
2017-07-30T21:40:46.986Z,2.13
2017-07-30T21:43:13.046Z,2.50
2017-07-30T21:45:39.139Z,2.13
2017-07-30T21:48:05.198Z,2.77
2017-07-30T21:50:32.040Z,2.37
2017-07-30T21:52:58.111Z,2.23
2017-07-30T21:55:24.231Z,2.30
2017-07-30T21:57:50.294Z,2.30
2017-07-30T22:00:16.362Z,2.33
2017-07-30T22:02:42.413Z,2.70
2017-07-30T22:05:08.495Z,2.77
2017-07-30T22:07:34.622Z,2.23
2017-07-30T22:10:00.742Z,2.50
2017-07-30T22:12:26.802Z,2.50
2017-07-30T22:14:52.878Z,2.50
2017-07-30T22:17:18.942Z,2.90
2017-07-30T22:19:45.006Z,2.20
2017-07-30T22:22:11.123Z,2.50
2017-07-30T22:24:37.230Z,3.20
2017-07-30T22:27:03.393Z,2.30
2017-07-30T22:29:29.451Z,2.50
2017-07-30T22:31:55.514Z,2.60
2017-07-30T22:34:21.558Z,2.70
2017-07-30T22:36:47.635Z,2.57
2017-07-30T22:39:14.530Z,2.67
2017-07-30T22:41:40.590Z,2.50
2017-07-30T22:44:06.746Z,3.27
2017-07-30T22:46:32.815Z,2.67
2017-07-30T22:48:58.890Z,2.53
2017-07-30T22:51:25.703Z,3.40
2017-07-30T22:53:51.754Z,2.40
2017-07-30T22:56:18.556Z,2.53
2017-07-30T22:58:44.643Z,2.70
2017-07-30T23:01:10.731Z,2.40
2017-07-30T23:03:37.526Z,3.10
2017-07-30T23:06:03.637Z,2.90
2017-07-30T23:08:29.690Z,3.27
2017-07-30T23:10:55.772Z,3.13
2017-07-30T23:13:21.818Z,2.80
2017-07-30T23:15:47.885Z,3.00
2017-07-30T23:18:14.059Z,4.20
2017-07-30T23:20:40.127Z,4.20
2017-07-30T23:23:06.182Z,4.73
2017-07-30T23:25:32.342Z,4.47
2017-07-30T23:27:58.442Z,4.10
2017-07-30T23:30:24.507Z,3.83
2017-07-30T23:32:50.699Z,3.43
2017-07-30T23:35:16.767Z,4.23
2017-07-30T23:37:42.838Z,4.70
2017-07-30T23:40:09.730Z,3.33
2017-07-30T23:42:35.786Z,3.40
2017-07-30T23:45:01.837Z,3.10
2017-07-30T23:47:27.909Z,4.00
2017-07-30T23:49:53.958Z,3.80
2017-07-30T23:52:20.026Z,3.53
2017-07-30T23:54:46.088Z,3.40
2017-07-30T23:57:12.299Z,3.40
2017-07-30T23:59:38.379Z,4.13
